Time;durP1;ratioP1;P1;durP2;ratioP2;P2;SDS_P1;SDS_P2;PMS_P1;PMS_P2;Temp;Humidity;BMP_temperature;BMP_pressure;BME280_temperature;BME280_humidity;BME280_pressure;Samples;Min_cycle;Max_cycle;Signal;HPM_P1;HPM_P2
2023/05/18 00:02:05;;;;;;;7.82;3.53;;;;;;;8.07;74.39;102735.66;5019462;22;20045;-59
2023/05/18 00:04:35;;;;;;;12.98;4.25;;;;;;;8.04;73.70;102735.47;5111528;22;20354;-80
2023/05/18 00:07:05;;;;;;;7.38;3.55;;;;;;;8.00;74.56;102725.66;5140048;23;20029;-59
2023/05/18 00:09:32;;;;;;;8.82;3.47;;;;;;;7.95;73.49;102734.84;5140870;23;20076;-80
2023/05/18 00:11:58;;;;;;;8.55;3.78;;;;;;;7.91;74.24;102728.56;5044145;23;20068;-59
2023/05/18 00:17:02;;;;;;;10.33;4.17;;;;;;;7.86;74.99;102737.75;5068444;22;20061;-80
2023/05/18 00:19:28;;;;;;;8.50;4.00;;;;;;;7.81;74.90;102737.44;5056501;23;21039;-58
2023/05/18 00:21:54;;;;;;;6.93;3.95;;;;;;;7.76;74.09;102728.47;5096539;22;20405;-59
2023/05/18 00:24:20;;;;;;;12.23;3.88;;;;;;;7.74;73.36;102735.25;5175192;22;20182;-58
2023/05/18 00:26:46;;;;;;;8.18;3.80;;;;;;;7.69;69.75;102738.34;5151565;23;20396;-59
2023/05/18 00:29:12;;;;;;;8.35;3.47;;;;;;;7.68;75.08;102732.25;5032471;28;20036;-58
2023/05/18 00:31:38;;;;;;;9.50;4.00;;;;;;;7.67;75.71;102735.63;5048539;22;20566;-80
2023/05/18 00:36:34;;;;;;;8.35;3.75;;;;;;;7.61;75.29;102740.44;5046636;22;20053;-80
2023/05/18 00:39:00;;;;;;;8.80;3.92;;;;;;;7.60;75.97;102742.13;4972148;28;20114;-80
2023/05/18 00:41:26;;;;;;;7.55;3.63;;;;;;;7.57;74.70;102738.44;5140946;23;20516;-80
2023/05/18 00:46:25;;;;;;;8.23;3.83;;;;;;;7.53;75.85;102746.78;5118812;22;1094880;-62
2023/05/18 00:48:52;;;;;;;8.23;4.00;;;;;;;7.50;75.22;102744.88;5057069;23;20057;-80
2023/05/18 00:51:22;;;;;;;8.48;3.40;;;;;;;7.46;75.59;102746.41;5049683;22;20192;-62
2023/05/18 00:59:01;;;;;;;8.70;4.07;;;;;;;7.44;76.41;102736.69;5088802;22;20053;-80
2023/05/18 01:01:29;;;;;;;9.00;4.05;;;;;;;7.42;75.38;102744.38;5053828;23;20417;-59
2023/05/18 01:03:56;;;;;;;10.00;4.03;;;;;;;7.40;75.59;102740.81;5057226;23;20053;-80
2023/05/18 01:08:54;;;;;;;7.20;3.95;;;;;;;7.32;76.17;102742.84;5064219;22;19925;-58
2023/05/18 01:11:32;;;;;;;7.65;3.70;;;;;;;7.29;76.20;102744.38;5035370;23;20529;-59
2023/05/18 01:14:08;;;;;;;6.53;3.58;;;;;;;7.26;76.35;102741.56;4996646;28;20030;-59
2023/05/18 01:22:49;;;;;;;11.18;4.20;;;;;;;7.26;75.84;102746.75;5117438;23;20052;-80
2023/05/18 01:25:31;;;;;;;8.82;3.97;;;;;;;7.22;76.58;102749.94;5034536;28;20055;-80
2023/05/18 01:28:05;;;;;;;11.65;4.53;;;;;;;7.13;77.05;102751.09;5069787;23;20127;-80
2023/05/18 01:30:26;;;;;;;8.13;4.00;;;;;;;7.10;76.75;102742.22;5109651;22;20421;-60
2023/05/18 01:32:53;;;;;;;9.82;3.83;;;;;;;7.08;77.18;102757.66;5097569;23;20091;-60
2023/05/18 01:35:18;;;;;;;10.07;3.80;;;;;;;7.07;77.04;102750.69;5096010;22;20053;-59
2023/05/18 01:37:43;;;;;;;8.77;3.92;;;;;;;7.05;77.66;102748.75;5092071;22;20041;-80
2023/05/18 01:40:09;;;;;;;7.90;4.40;;;;;;;6.98;76.93;102747.47;5144573;23;20516;-79
2023/05/18 01:45:12;;;;;;;8.82;4.03;;;;;;;6.92;77.88;102744.44;4987168;23;20549;-59
2023/05/18 01:50:20;;;;;;;10.63;4.35;;;;;;;6.91;77.64;102750.44;5056029;22;20094;31
2023/05/18 01:53:05;;;;;;;10.07;4.07;;;;;;;6.89;77.44;102749.41;5124545;22;20049;-62
2023/05/18 01:55:32;;;;;;;8.10;3.80;;;;;;;6.86;78.31;102744.91;5087143;23;20413;-59
2023/05/18 01:57:59;;;;;;;12.15;4.95;;;;;;;6.80;78.05;102749.66;5044668;23;20080;-58
2023/05/18 02:02:57;;;;;;;11.70;4.30;;;;;;;6.75;78.55;102743.28;5107837;23;20504;-80
2023/05/18 02:05:22;;;;;;;8.90;4.53;;;;;;;6.72;78.45;102746.53;5030358;28;20082;-80
2023/05/18 02:07:48;;;;;;;8.95;3.72;;;;;;;6.73;79.19;102747.44;5086449;23;20144;-80
2023/05/18 02:10:13;;;;;;;8.90;4.00;;;;;;;6.72;78.91;102735.25;5149377;23;20057;-80
2023/05/18 02:12:38;;;;;;;11.80;4.20;;;;;;;6.69;78.54;102742.81;5047108;22;20035;-62
2023/05/18 02:15:05;;;;;;;12.20;4.40;;;;;;;6.68;79.11;102735.88;5095904;23;20047;-59
2023/05/18 02:17:32;;;;;;;9.50;4.22;;;;;;;6.65;78.88;102735.63;5111156;22;20045;-59
2023/05/18 02:19:58;;;;;;;8.23;3.97;;;;;;;6.64;79.16;102737.31;5073020;23;20048;-80
2023/05/18 02:22:23;;;;;;;10.93;4.20;;;;;;;6.63;79.19;102737.22;5034750;28;20062;-80
2023/05/18 02:24:48;;;;;;;9.27;3.92;;;;;;;6.61;79.55;102738.00;5078903;23;21025;-80
2023/05/18 02:27:14;;;;;;;10.60;4.30;;;;;;;6.59;79.85;102728.34;5019774;28;20774;-80
2023/05/18 02:32:09;;;;;;;7.80;3.83;;;;;;;6.57;79.73;102725.63;5073045;22;20061;-80
2023/05/18 02:34:37;;;;;;;7.47;3.92;;;;;;;6.52;80.09;102732.19;5113969;23;20088;-62
2023/05/18 02:37:03;;;;;;;7.28;3.90;;;;;;;6.50;79.38;102725.09;5109464;22;20046;-59
2023/05/18 02:39:29;;;;;;;8.48;3.95;;;;;;;6.50;79.95;102723.41;5055606;23;20068;-79
2023/05/18 02:41:54;;;;;;;6.78;3.97;;;;;;;6.52;79.68;102723.53;5181590;22;20423;-80
2023/05/18 02:44:20;;;;;;;9.43;4.30;;;;;;;6.48;79.54;102724.09;5056780;23;20547;-62
2023/05/18 02:46:45;;;;;;;8.35;3.97;;;;;;;6.46;79.79;102725.66;5151209;22;20123;-62
2023/05/18 02:49:11;;;;;;;9.45;4.60;;;;;;;6.42;80.38;102724.56;5033638;28;20100;-62
2023/05/18 02:51:36;;;;;;;9.55;4.30;;;;;;;6.40;80.48;102720.94;5070519;22;20072;-59
2023/05/18 02:54:01;;;;;;;8.27;4.40;;;;;;;6.38;80.10;102723.44;5059790;23;20053;-80
2023/05/18 02:56:27;;;;;;;7.38;3.83;;;;;;;6.36;80.96;102717.25;5133132;23;20415;-80
2023/05/18 02:58:56;;;;;;;9.13;4.07;;;;;;;6.33;80.81;102724.81;5035938;23;20017;-61
2023/05/18 03:01:25;;;;;;;9.68;4.00;;;;;;;6.31;80.87;102722.91;5046372;23;20081;-80
2023/05/18 03:03:56;;;;;;;8.85;4.20;;;;;;;6.27;80.88;102724.34;5157536;22;20626;-80
2023/05/18 03:06:22;;;;;;;8.30;4.22;;;;;;;6.26;81.29;102723.47;5063464;23;20520;-59
2023/05/18 03:08:50;;;;;;;9.98;4.47;;;;;;;6.22;80.48;102726.63;5162776;22;20067;-62
2023/05/18 03:11:15;;;;;;;10.50;4.55;;;;;;;6.23;80.72;102731.00;5124746;22;20088;-59
2023/05/18 03:13:42;;;;;;;7.35;4.18;;;;;;;6.22;81.26;102725.72;5036029;28;21077;-59
2023/05/18 03:16:07;;;;;;;6.97;3.67;;;;;;;6.21;81.05;102727.44;5076419;23;20088;-80
2023/05/18 03:18:32;;;;;;;7.13;3.85;;;;;;;6.20;81.31;102728.22;5242557;22;20434;-59
2023/05/18 03:23:59;;;;;;;10.60;4.25;;;;;;;6.16;81.21;102730.47;5142597;23;20037;31
2023/05/18 03:29:20;;;;;;;8.85;4.15;;;;;;;6.10;81.32;102728.34;5150087;23;20049;-79
2023/05/18 03:31:45;;;;;;;8.32;4.20;;;;;;;6.07;81.41;102722.94;5094119;23;20068;-80
2023/05/18 03:34:10;;;;;;;7.40;3.70;;;;;;;6.06;81.46;102729.78;5060473;22;20452;-62
2023/05/18 03:36:37;;;;;;;10.20;4.53;;;;;;;6.04;81.51;102731.38;5189967;23;20049;-80
2023/05/18 03:39:04;;;;;;;8.98;4.22;;;;;;;6.04;81.72;102723.63;4769494;23;20130;-62
2023/05/18 03:41:30;;;;;;;11.80;4.75;;;;;;;6.03;81.39;102726.97;5073825;23;20062;-80
2023/05/18 03:43:56;;;;;;;8.98;4.15;;;;;;;6.02;81.59;102725.19;5016676;28;20080;-80
2023/05/18 03:46:21;;;;;;;8.93;4.25;;;;;;;6.00;81.13;102725.88;5062084;23;20012;-62
2023/05/18 03:48:46;;;;;;;9.50;4.05;;;;;;;5.98;82.06;102725.78;5166122;22;20025;-79
2023/05/18 03:53:42;;;;;;;12.57;5.50;;;;;;;5.93;82.40;102732.25;5045041;23;20065;-80
2023/05/18 03:56:08;;;;;;;10.57;4.68;;;;;;;5.90;82.11;102737.19;5030201;22;20020;-61
2023/05/18 03:58:33;;;;;;;8.10;4.32;;;;;;;5.87;82.15;102732.69;5126178;22;20047;-59
2023/05/18 04:01:00;;;;;;;11.05;4.45;;;;;;;5.86;82.29;102737.75;5076907;23;20041;-80
2023/05/18 04:05:50;;;;;;;9.15;4.13;;;;;;;5.81;82.93;102741.69;5150595;22;20140;-80
2023/05/18 04:08:16;;;;;;;10.57;4.97;;;;;;;5.79;82.65;102741.56;5109146;23;21191;-80
2023/05/18 04:10:42;;;;;;;8.93;4.25;;;;;;;5.78;82.79;102742.38;5077153;23;20497;-62
2023/05/18 04:13:07;;;;;;;8.85;4.38;;;;;;;5.79;83.25;102743.28;5118142;23;20053;-80
2023/05/18 04:15:33;;;;;;;9.75;3.88;;;;;;;5.77;83.63;102747.44;5118709;22;20057;-80
2023/05/18 04:18:00;;;;;;;11.05;4.60;;;;;;;5.78;83.43;102746.63;5122948;23;20286;-79
2023/05/18 04:20:27;;;;;;;14.98;4.40;;;;;;;5.80;83.82;102753.72;5114462;23;20095;-80
2023/05/18 04:22:52;;;;;;;8.73;4.10;;;;;;;5.83;83.69;102753.06;5059825;22;20111;-62
2023/05/18 04:25:19;;;;;;;10.13;4.40;;;;;;;5.85;83.84;102754.97;5128379;22;20049;-80
2023/05/18 04:27:44;;;;;;;10.18;4.72;;;;;;;5.87;83.80;102760.25;5130670;23;20120;-62
2023/05/18 04:30:11;;;;;;;10.50;4.45;;;;;;;5.87;83.30;102749.91;5410913;22;20136;-62
2023/05/18 04:32:37;;;;;;;8.95;4.57;;;;;;;5.87;83.43;102758.56;5079787;23;20048;-60
2023/05/18 04:35:05;;;;;;;8.18;4.28;;;;;;;5.90;84.38;102761.38;5111752;23;20045;-62
2023/05/18 04:37:31;;;;;;;11.02;4.93;;;;;;;5.90;84.96;102763.97;5055781;23;20139;-80
2023/05/18 04:39:57;;;;;;;9.00;4.45;;;;;;;5.91;84.90;102763.19;5114470;23;20080;-62
2023/05/18 04:42:23;;;;;;;10.90;5.15;;;;;;;5.92;85.12;102762.41;5144702;22;20128;-79
2023/05/18 04:44:51;;;;;;;11.50;4.70;;;;;;;5.95;85.05;102766.88;5074704;23;20061;-60
2023/05/18 04:47:16;;;;;;;9.50;5.13;;;;;;;5.99;84.93;102762.88;5113421;22;20531;-60
2023/05/18 04:49:42;;;;;;;11.20;5.03;;;;;;;6.00;85.00;102756.94;5062429;23;20045;-62
2023/05/18 04:52:09;;;;;;;8.70;4.30;;;;;;;6.02;85.60;102769.16;5099845;23;20049;-62
2023/05/18 04:54:34;;;;;;;9.35;5.03;;;;;;;6.04;85.59;102771.88;5141645;23;20152;-80
2023/05/18 04:57:02;;;;;;;11.82;5.03;;;;;;;6.05;85.19;102774.59;5137142;22;20059;-80
2023/05/18 04:59:27;;;;;;;10.10;4.38;;;;;;;6.07;85.33;102767.81;5127424;23;20041;-80
2023/05/18 05:01:53;;;;;;;9.77;4.68;;;;;;;6.08;85.44;102769.63;5141516;22;20535;-80
2023/05/18 05:04:20;;;;;;;10.15;4.78;;;;;;;6.12;85.57;102775.03;5198259;23;20053;-60
2023/05/18 05:11:56;;;;;;;9.38;4.70;;;;;;;6.17;84.86;102771.06;5012690;22;20630;-80
2023/05/18 05:19:20;;;;;;;10.93;4.57;;;;;;;6.22;85.40;102767.16;5173731;22;20662;31
2023/05/18 05:21:46;;;;;;;10.55;4.75;;;;;;;6.27;85.95;102773.53;5124483;22;20057;-80
2023/05/18 05:26:41;;;;;;;12.43;4.90;;;;;;;6.33;85.77;102771.41;5118719;22;20115;-60
2023/05/18 05:29:06;;;;;;;11.10;4.45;;;;;;;6.35;85.75;102775.00;5031246;28;20484;-60
2023/05/18 05:31:33;;;;;;;10.20;6.70;;;;;;;6.38;86.38;102777.81;5113079;22;20041;-59
2023/05/18 05:34:02;;;;;;;45.60;24.48;;;;;;;6.42;86.32;102776.34;5142680;22;1107512;31
2023/05/18 05:36:27;;;;;;;51.50;29.13;;;;;;;6.42;85.83;102776.34;4900048;22;20073;-59
2023/05/18 05:38:52;;;;;;;11.43;6.03;;;;;;;6.46;84.92;102780.03;5046618;23;20180;-80
2023/05/18 05:41:18;;;;;;;11.10;5.25;;;;;;;6.48;85.30;102778.47;5089119;23;20338;-62
2023/05/18 05:43:44;;;;;;;9.90;4.90;;;;;;;6.44;83.88;102775.69;5095532;23;20067;-59
2023/05/18 05:46:09;;;;;;;10.00;4.57;;;;;;;6.46;82.74;102777.44;5073415;22;20203;-60
2023/05/18 05:48:35;;;;;;;12.57;4.85;;;;;;;6.49;85.50;102777.66;5149751;23;20409;-80
2023/05/18 05:53:29;;;;;;;18.35;8.73;;;;;;;6.58;86.17;102780.94;5084301;22;20056;-63
2023/05/18 06:01:54;;;;;;;11.25;5.63;;;;;;;6.73;85.03;102782.00;5004732;22;20393;-60
2023/05/18 06:04:20;;;;;;;12.60;5.78;;;;;;;6.78;85.53;102770.28;5204154;23;20055;-80
2023/05/18 06:06:46;;;;;;;10.70;5.90;;;;;;;6.86;84.77;102775.09;5057768;23;20058;-62
2023/05/18 06:09:12;;;;;;;9.25;5.43;;;;;;;6.92;85.15;102778.13;5075098;23;20531;-80
2023/05/18 06:11:38;;;;;;;13.48;5.63;;;;;;;6.96;83.56;102782.72;5030972;23;20628;-60
2023/05/18 06:16:38;;;;;;;10.65;5.70;;;;;;;7.05;85.33;102778.16;5021960;28;20045;-60
2023/05/18 06:19:03;;;;;;;12.18;6.32;;;;;;;7.16;83.84;102776.34;5053905;22;20053;-80
2023/05/18 06:21:29;;;;;;;36.47;20.27;;;;;;;7.23;81.21;102772.47;5201061;22;20046;-81
2023/05/18 06:26:27;;;;;;;10.90;5.57;;;;;;;7.46;82.49;102781.81;5046843;22;20084;-80
2023/05/18 06:28:52;;;;;;;13.38;6.05;;;;;;;7.46;80.64;102782.72;5155086;23;20436;-80
2023/05/18 06:31:17;;;;;;;10.68;5.78;;;;;;;7.51;79.94;102779.53;5093914;23;20140;-59
2023/05/18 06:33:43;;;;;;;11.80;6.10;;;;;;;7.56;79.19;102785.91;5033139;22;20119;-60
2023/05/18 06:38:40;;;;;;;12.93;5.85;;;;;;;7.78;80.52;102783.06;5039921;28;20048;-60
2023/05/18 06:41:05;;;;;;;10.13;5.65;;;;;;;7.90;81.58;102785.56;5042855;28;20086;-60
2023/05/18 06:46:06;;;;;;;12.07;5.75;;;;;;;8.10;78.34;102789.47;5086205;22;20119;-60
2023/05/18 06:48:32;;;;;;;12.45;6.05;;;;;;;8.24;79.14;102792.94;5100842;23;20057;-60
2023/05/18 06:50:58;;;;;;;11.63;6.15;;;;;;;8.31;78.12;102788.28;5084571;23;20057;-60
2023/05/18 06:53:23;;;;;;;13.63;6.10;;;;;;;8.34;77.65;102791.06;5095096;22;20601;-60
2023/05/18 06:58:21;;;;;;;12.45;6.18;;;;;;;8.65;77.78;102792.16;5031210;28;20292;-60
2023/05/18 07:03:20;;;;;;;13.30;7.13;;;;;;;8.85;77.08;102793.41;5054962;22;20061;-80
2023/05/18 07:05:46;;;;;;;14.05;6.90;;;;;;;8.98;78.60;102802.81;5103862;22;20045;-80
2023/05/18 07:08:11;;;;;;;13.27;6.15;;;;;;;9.01;77.01;102798.72;5037691;23;20049;-59
2023/05/18 07:10:36;;;;;;;11.45;5.95;;;;;;;9.05;77.94;102795.50;5053551;23;20052;-96
2023/05/18 07:13:02;;;;;;;12.07;5.80;;;;;;;9.14;73.00;102804.66;5041372;28;20041;-95
2023/05/18 07:15:27;;;;;;;14.13;6.07;;;;;;;9.13;74.45;102800.28;5050894;28;20029;-94
2023/05/18 07:17:55;;;;;;;11.25;5.97;;;;;;;9.12;75.49;102801.97;5030832;28;20025;-95
2023/05/18 07:20:20;;;;;;;11.95;6.10;;;;;;;9.27;77.17;102811.50;5044456;28;20033;-94
2023/05/18 07:22:49;;;;;;;12.48;6.32;;;;;;;9.33;75.42;102806.72;5027140;28;20028;-96
2023/05/18 07:25:15;;;;;;;11.65;6.38;;;;;;;9.36;74.32;102812.09;5045786;28;20021;-90
2023/05/18 07:27:45;;;;;;;12.00;6.22;;;;;;;9.38;74.13;102806.19;5036938;28;20512;-95
2023/05/18 07:30:11;;;;;;;10.18;6.68;;;;;;;9.45;72.47;102812.63;5034534;28;20128;-94
2023/05/18 07:32:37;;;;;;;11.57;6.78;;;;;;;9.42;72.72;102809.84;5031043;28;20401;-93
2023/05/18 07:35:02;;;;;;;12.55;6.32;;;;;;;9.47;77.17;102811.03;5040161;28;20025;-94
2023/05/18 07:37:27;;;;;;;12.93;6.53;;;;;;;9.64;77.57;102816.34;5023958;28;20033;-94
2023/05/18 07:39:53;;;;;;;13.18;6.28;;;;;;;9.79;75.64;102818.94;5029110;28;20504;-94
2023/05/18 07:42:18;;;;;;;12.90;5.97;;;;;;;9.82;71.77;102812.22;5040714;28;20536;-94
2023/05/18 07:44:43;;;;;;;12.43;6.20;;;;;;;9.92;75.25;102814.53;5020103;28;20117;-93
2023/05/18 07:47:10;;;;;;;15.10;6.47;;;;;;;10.05;73.32;102812.63;5020450;28;20025;-93
2023/05/18 07:49:37;;;;;;;11.32;6.40;;;;;;;10.12;73.09;102814.78;5026127;28;20541;-92
2023/05/18 07:52:05;;;;;;;16.88;8.60;;;;;;;10.34;74.61;102826.47;5022011;28;20597;-95
2023/05/18 07:54:31;;;;;;;14.82;6.40;;;;;;;10.57;74.49;102820.84;5044533;28;20467;-93
2023/05/18 07:56:56;;;;;;;11.45;6.80;;;;;;;10.78;74.48;102822.84;5021499;28;20051;-94
2023/05/18 07:59:24;;;;;;;11.32;5.80;;;;;;;10.89;68.90;102820.78;5020543;28;20139;-96
2023/05/18 08:01:50;;;;;;;12.48;6.32;;;;;;;11.05;71.14;102814.69;5020367;28;20029;-94
2023/05/18 08:04:21;;;;;;;12.70;6.28;;;;;;;11.19;70.65;102824.16;5031704;28;20160;-96
2023/05/18 08:06:49;;;;;;;12.35;6.35;;;;;;;11.38;69.29;102823.41;5025209;28;20067;-95
2023/05/18 08:09:14;;;;;;;13.10;6.20;;;;;;;11.46;68.50;102815.97;5028447;28;20064;-96
2023/05/18 08:11:40;;;;;;;12.15;5.95;;;;;;;11.58;70.28;102818.31;5027554;28;20068;-95
2023/05/18 08:14:06;;;;;;;12.65;5.68;;;;;;;11.55;65.50;102824.28;5023092;28;20132;-94
2023/05/18 08:16:35;;;;;;;10.98;6.40;;;;;;;11.60;68.11;102824.50;5025133;28;20033;-94
2023/05/18 08:19:02;;;;;;;14.32;6.15;;;;;;;11.63;65.49;102822.09;5025580;28;20060;-94
2023/05/18 08:21:28;;;;;;;10.65;5.50;;;;;;;11.69;61.79;102818.84;5023418;28;20031;-93
2023/05/18 08:23:53;;;;;;;12.07;6.20;;;;;;;11.62;63.77;102821.16;5022169;28;20017;-95
2023/05/18 08:26:19;;;;;;;14.45;5.85;;;;;;;11.74;67.53;102810.44;5025670;28;20470;-94
2023/05/18 08:28:49;;;;;;;9.93;5.57;;;;;;;11.98;69.43;102812.53;5023684;28;20068;-94
2023/05/18 08:31:15;;;;;;;12.23;5.68;;;;;;;12.28;68.09;102815.75;5025843;28;20422;-95
2023/05/18 08:33:40;;;;;;;12.25;5.60;;;;;;;12.44;67.01;102811.25;5021235;28;20028;-94
2023/05/18 08:41:21;;;;;;;12.88;5.78;;;;;;;12.73;64.28;102803.88;5014404;22;20053;-60
2023/05/18 08:43:53;;;;;;;12.88;6.30;;;;;;;12.72;64.55;102807.34;5208616;22;20116;-62
2023/05/18 08:46:20;;;;;;;9.38;5.10;;;;;;;12.88;65.41;102801.97;5072081;23;20033;-76
2023/05/18 08:48:56;;;;;;;10.52;5.13;;;;;;;13.11;65.10;102799.50;5103678;23;20053;-96
2023/05/18 08:51:41;;;;;;;;;;;;;;;;;;;;;
2023/05/18 08:54:10;;;;;;;10.82;5.80;;;;;;;13.34;61.77;102798.81;5040661;28;20098;-96
2023/05/18 08:56:40;;;;;;;10.45;5.38;;;;;;;13.41;62.31;102793.84;5027534;28;20801;-96
2023/05/18 08:59:10;;;;;;;10.25;5.35;;;;;;;13.56;62.27;102789.28;5027376;28;20105;-96
2023/05/18 09:01:41;;;;;;;11.77;4.80;;;;;;;13.47;58.19;102800.25;5007983;28;20034;-96
2023/05/18 09:04:13;;;;;;;8.88;4.97;;;;;;;13.40;55.61;102792.97;5026489;28;20084;-96
2023/05/18 09:06:39;;;;;;;11.02;4.32;;;;;;;13.46;57.74;102797.56;5011140;28;20036;-95
2023/05/18 09:09:06;;;;;;;12.27;4.80;;;;;;;13.51;59.58;102786.47;5012431;28;20033;-96
2023/05/18 09:11:34;;;;;;;11.80;4.75;;;;;;;13.53;59.53;102786.53;5025205;28;20033;-95
2023/05/18 09:14:00;;;;;;;8.50;4.00;;;;;;;13.33;54.74;102794.38;5014080;28;20112;-94
2023/05/18 09:16:26;;;;;;;12.82;4.15;;;;;;;13.14;53.67;102792.69;5022544;28;20079;-95
2023/05/18 09:18:52;;;;;;;9.60;3.85;;;;;;;13.08;53.15;102786.25;5003319;28;20025;-95
2023/05/18 09:21:22;;;;;;;8.13;4.00;;;;;;;13.01;55.03;102788.59;5003106;28;20063;-96
2023/05/18 09:23:49;;;;;;;10.43;4.72;;;;;;;12.95;55.23;102783.09;5006043;28;20021;-95
2023/05/18 09:26:15;;;;;;;8.13;4.28;;;;;;;12.94;57.18;102783.03;5006317;28;20110;-96
2023/05/18 09:28:42;;;;;;;8.75;4.32;;;;;;;13.00;54.25;102783.31;5022431;28;20542;-95
2023/05/18 09:31:11;;;;;;;8.60;4.40;;;;;;;13.19;57.74;102787.63;5024092;28;20083;-95
2023/05/18 09:33:38;;;;;;;11.93;4.35;;;;;;;13.34;56.56;102777.88;5002718;28;20025;-96
2023/05/18 09:36:05;;;;;;;10.15;4.30;;;;;;;13.39;58.38;102781.56;5018723;28;20399;-96
2023/05/18 09:38:35;;;;;;;10.20;4.70;;;;;;;13.53;56.61;102773.44;5026746;28;20026;-93
2023/05/18 09:41:01;;;;;;;11.82;4.93;;;;;;;13.63;58.21;102778.22;5007872;28;20025;-96
2023/05/18 09:43:26;;;;;;;11.15;5.18;;;;;;;13.66;56.32;102773.13;5026438;28;20032;-95
2023/05/18 09:45:54;;;;;;;11.65;4.90;;;;;;;13.87;59.08;102765.22;5007302;28;20026;-95
2023/05/18 09:48:20;;;;;;;9.27;4.35;;;;;;;14.19;60.71;102773.53;5028716;28;20084;-96
2023/05/18 09:50:46;;;;;;;13.13;5.28;;;;;;;14.52;58.27;102775.66;5030708;28;20152;-96
2023/05/18 09:53:12;;;;;;;7.72;4.90;;;;;;;14.52;53.02;102775.66;5025829;28;20487;-96
2023/05/18 09:55:48;;;;;;;9.55;5.03;;;;;;;14.51;54.40;102768.66;5016913;28;20157;-93
2023/05/18 09:58:14;;;;;;;9.15;4.80;;;;;;;14.41;56.77;102776.97;5034370;28;20036;-95
2023/05/18 10:00:52;;;;;;;12.98;5.10;;;;;;;14.38;56.13;102762.03;5029462;28;20025;-95
2023/05/18 10:03:20;;;;;;;10.23;4.88;;;;;;;14.64;57.54;102759.53;5018608;28;21540;-92
2023/05/18 10:05:46;;;;;;;8.65;4.30;;;;;;;14.89;53.55;102763.97;5031400;28;20026;-95
2023/05/18 10:08:18;;;;;;;10.57;4.90;;;;;;;14.96;56.78;102762.44;5009675;28;20056;-96
2023/05/18 10:10:46;;;;;;;9.73;4.53;;;;;;;15.26;53.13;102760.00;5022680;28;20372;-96
2023/05/18 10:13:16;;;;;;;9.63;4.68;;;;;;;14.89;48.68;102758.72;5018053;28;20029;-96
2023/05/18 10:15:48;;;;;;;9.85;4.30;;;;;;;14.86;56.43;102755.97;5029824;28;20029;-96
2023/05/18 10:18:32;;;;;;;10.38;4.65;;;;;;;15.22;53.03;102751.97;5016319;28;20195;-96
2023/05/18 10:21:00;;;;;;;9.85;4.90;;;;;;;15.19;52.92;102749.25;5121133;22;21698;-76
2023/05/18 10:23:29;;;;;;;8.43;4.35;;;;;;;15.29;52.63;102748.72;5124109;22;20050;-62
2023/05/18 10:25:54;;;;;;;9.73;4.50;;;;;;;15.44;54.15;102749.25;5029816;23;20800;-76
2023/05/18 10:30:45;;;;;;;8.55;4.80;;;;;;;15.82;54.28;102743.53;5037365;23;20105;-78
2023/05/18 10:33:12;;;;;;;9.00;4.93;;;;;;;15.96;51.53;102751.84;5035370;28;20041;-77
2023/05/18 10:35:48;;;;;;;9.00;4.90;;;;;;;16.10;52.18;102752.28;5053189;22;20053;-95
2023/05/18 10:38:20;;;;;;;12.32;5.50;;;;;;;16.15;54.16;102742.81;5012354;28;20021;-95
2023/05/18 10:40:50;;;;;;;9.02;5.47;;;;;;;16.05;51.57;102746.91;5014021;28;20025;-95
2023/05/18 10:43:19;;;;;;;10.40;5.13;;;;;;;15.82;49.17;102744.41;5029864;28;20021;-96
2023/05/18 10:45:47;;;;;;;11.60;5.35;;;;;;;15.80;49.16;102732.97;5016318;28;20021;-95
2023/05/18 10:48:14;;;;;;;13.45;5.70;;;;;;;15.80;49.72;102730.34;5015428;28;20082;-95
2023/05/18 10:50:49;;;;;;;12.05;5.22;;;;;;;15.96;52.75;102734.34;5014664;28;20483;-96
2023/05/18 10:56:26;;;;;;;12.82;5.32;;;;;;;16.36;51.87;102731.16;5027454;28;20025;-96
2023/05/18 10:59:18;;;;;;;10.50;5.45;;;;;;;16.65;49.97;102734.66;5020744;28;20529;-96
2023/05/18 11:01:50;;;;;;;12.80;5.90;;;;;;;16.59;48.50;102738.00;5033228;28;20013;-96
2023/05/18 11:04:35;;;;;;;9.73;5.50;;;;;;;16.82;51.72;102733.38;5016906;28;20035;-96
2023/05/18 11:07:13;;;;;;;34.78;24.38;;;;;;;17.06;51.52;102727.06;5017854;28;20045;-96
2023/05/18 11:09:50;;;;;;;11.95;5.97;;;;;;;16.94;47.04;102722.34;5015279;28;20037;-95
2023/05/18 11:12:16;;;;;;;10.43;5.60;;;;;;;16.49;46.70;102723.66;5016397;28;20105;-95
2023/05/18 11:14:50;;;;;;;12.18;5.75;;;;;;;16.16;47.26;102724.47;5029068;28;20032;-95
2023/05/18 11:17:26;;;;;;;10.55;6.07;;;;;;;15.70;48.95;102717.72;5027355;28;20033;-96
2023/05/18 11:20:07;;;;;;;10.13;6.15;;;;;;;16.08;51.32;102719.81;5015813;28;20403;-96
2023/05/18 11:22:40;;;;;;;12.57;6.78;;;;;;;16.55;50.79;102727.34;5019627;28;20099;-96
2023/05/18 11:25:09;;;;;;;12.10;6.25;;;;;;;16.37;44.87;102720.69;5017704;28;20529;-95
2023/05/18 11:27:34;;;;;;;10.18;6.40;;;;;;;16.43;51.82;102723.50;5032812;28;20098;-96
2023/05/18 11:30:11;;;;;;;12.43;6.82;;;;;;;16.69;49.59;102720.72;5018398;28;20112;-96
2023/05/18 11:32:51;;;;;;;11.20;6.55;;;;;;;16.69;48.72;102721.63;5030185;28;20486;-96
2023/05/18 11:39:03;;;;;;;8.98;6.07;;;;;;;16.06;44.97;102716.22;5068633;22;20052;-95
2023/05/18 11:41:46;;;;;;;12.80;6.18;;;;;;;15.57;52.12;102710.25;5019197;28;20105;-95
2023/05/18 11:44:32;;;;;;;10.80;6.10;;;;;;;15.82;50.30;102707.63;5022689;28;20033;-96
2023/05/18 11:47:03;;;;;;;10.98;6.10;;;;;;;16.11;49.71;102707.63;5027303;28;20032;-96
2023/05/18 11:49:53;;;;;;;12.60;6.65;;;;;;;16.22;47.56;102704.44;5023348;28;20029;-96
2023/05/18 11:55:22;;;;;;;11.88;6.13;;;;;;;15.58;46.78;102693.66;5039404;28;20041;-96
2023/05/18 12:07:30;;;;;;;10.48;5.85;;;;;;;15.07;47.44;102691.97;4967325;29;20035;-96
2023/05/18 12:10:25;;;;;;;10.90;5.50;;;;;;;14.97;48.54;102684.59;5024895;28;20033;-96
2023/05/18 12:16:18;;;;;;;10.00;6.20;;;;;;;14.69;48.74;102684.50;5043418;28;20034;-96
2023/05/18 12:19:23;;;;;;;9.88;5.68;;;;;;;14.79;51.44;102688.38;4998617;28;20042;-96
2023/05/18 12:22:40;;;;;;;11.25;5.95;;;;;;;14.93;52.33;102678.34;4989714;28;20073;-96
2023/05/18 12:25:18;;;;;;;13.80;6.78;;;;;;;15.00;49.68;102684.69;4999577;28;20038;-96
2023/05/18 12:28:23;;;;;;;11.00;6.68;;;;;;;14.93;48.61;102680.97;4999433;28;20415;-96
2023/05/18 12:31:43;;;;;;;;;;;;;;;;;;;;;
2023/05/18 12:34:35;;;;;;;11.13;6.63;;;;;;;15.74;49.06;102680.19;5007163;28;20126;-96
2023/05/18 12:37:48;;;;;;;10.30;6.13;;;;;;;16.00;48.61;102685.38;5002689;28;20061;-96
2023/05/18 12:40:52;;;;;;;;;;;;;;;;;;;;;
2023/05/18 12:43:25;;;;;;;13.70;5.82;;;;;;;16.59;46.09;102685.34;5012162;28;20170;-96
2023/05/18 12:46:10;;;;;;;11.25;6.18;;;;;;;17.27;50.46;102670.53;5029060;28;20102;-96
2023/05/18 12:49:19;;;;;;;9.57;5.57;;;;;;;17.70;49.74;102672.44;5042272;28;20033;-96
2023/05/18 12:51:45;;;;;;;10.18;5.95;;;;;;;17.81;45.05;102677.94;5199077;22;20049;-75
2023/05/18 12:54:10;;;;;;;11.68;5.78;;;;;;;17.95;46.61;102672.16;5019510;28;20087;-76
2023/05/18 12:56:57;;;;;;;10.05;6.22;;;;;;;17.44;41.90;102669.19;5083375;23;20079;-76
2023/05/18 12:59:23;;;;;;;10.23;5.80;;;;;;;17.65;45.93;102675.81;5069052;23;20537;-61
2023/05/18 13:04:18;;;;;;;;;;;;;;;18.33;45.57;102659.78;5042207;22;20061;-76
2023/05/18 13:06:43;;;;;;;9.60;5.93;;;;;;;18.32;44.69;102659.75;5104030;22;20304;-74
2023/05/18 13:09:12;;;;;;;11.18;5.72;;;;;;;18.36;44.02;102667.75;5074361;22;20053;-75
2023/05/18 13:14:07;;;;;;;;;;;;;;;18.34;44.97;102651.00;5109635;22;20504;-61
2023/05/18 13:16:35;;;;;;;9.50;6.07;;;;;;;18.69;46.34;102653.44;5073736;23;20960;-75
2023/05/18 13:19:04;;;;;;;10.13;5.60;;;;;;;18.75;42.62;102652.66;5130725;22;20551;-61
2023/05/18 13:21:29;;;;;;;10.63;6.35;;;;;;;18.54;40.06;102647.88;5085616;22;20052;-66
2023/05/18 13:23:55;;;;;;;9.88;5.50;;;;;;;18.54;45.92;102648.75;5155662;23;20055;-61
2023/05/18 13:31:23;;;;;;;8.85;5.82;;;;;;;18.19;43.80;102634.84;4996483;28;20525;-66
2023/05/18 13:33:49;;;;;;;11.57;5.60;;;;;;;18.24;44.67;102639.34;5079001;22;20793;-66
2023/05/18 13:36:16;;;;;;;10.68;5.70;;;;;;;18.25;45.94;102642.91;4923953;22;20711;-61
2023/05/18 13:38:41;;;;;;;8.45;5.60;;;;;;;18.49;45.15;102631.94;5099376;22;20443;-60